ASA181 KSEA-LIRF
Flight info
| Callsign | ASA181 |
|---|---|
| Flight time | N/A |
| Altitude | 35000 |
| Route | ALPSE DCT YDC DCT WELLF DCT YEGGA DCT RUBSU DCT YSF/N0499F370 DCT 60N104W 62N100W 65N090W 66N080W 67N070W/M085F370 DCT CANEL DCT 68N060W 68N050W 67N040W/M085F390 64N030W 61N020W DCT ERAKA/N0487F390 DCT ETSOM DCT MAKUX DCT SOSIM L15 MOTOX DCT RUCAC DCT LESDO DCT BUBLI DCT LUVAL DCT SHARA DCT DEVDI DCT ODINA DCT EKPAL DCT TINKU DCT XIBIL |
| Aircraft | B789/H-SDE1E2E3FGHIJ2J3J4J5M1RWXY/LB1D1 |
Departure
| Time | 2026-05-04 14:42 |
|---|---|
| Airport | Seattle–Tacoma International Airport (KSEA) |
Arrival
| Time | N/A |
|---|---|
| Airport | Rome–Fiumicino Leonardo da Vinci International Airport (LIRF) |
| Time | Latitude | Longitude | Altitude | Speed | Heading |
|---|---|---|---|---|---|
| 2026-05-04 14:42 | 47.73415 | -122.22033 | 10285 ft | 329 kts | 12° |
| 2026-05-04 14:42 | 47.75740 | -122.21303 | 10342 ft | 352 kts | 12° |
| 2026-05-04 14:43 | 47.78199 | -122.20529 | 10639 ft | 365 kts | 12° |
| 2026-05-04 14:43 | 47.80680 | -122.19748 | 11346 ft | 366 kts | 12° |
| 2026-05-04 14:43 | 47.83181 | -122.18960 | 11939 ft | 369 kts | 12° |
| 2026-05-04 14:43 | 47.85699 | -122.18166 | 12568 ft | 371 kts | 12° |
| 2026-05-04 14:44 | 47.88241 | -122.17363 | 13190 ft | 373 kts | 12° |
| 2026-05-04 14:44 | 47.90754 | -122.16569 | 13782 ft | 376 kts | 12° |
| 2026-05-04 14:44 | 47.93354 | -122.15747 | 14317 ft | 378 kts | 12° |
| 2026-05-04 14:44 | 47.95898 | -122.14941 | 14858 ft | 380 kts | 11° |
| 2026-05-04 14:45 | 47.98497 | -122.14118 | 15382 ft | 382 kts | 11° |
| 2026-05-04 14:45 | 48.01105 | -122.13291 | 15895 ft | 385 kts | 11° |
| 2026-05-04 14:45 | 48.03733 | -122.12456 | 16377 ft | 387 kts | 11° |
| 2026-05-04 14:45 | 48.06377 | -122.11615 | 16879 ft | 389 kts | 11° |
| 2026-05-04 14:46 | 48.09029 | -122.10770 | 17364 ft | 391 kts | 11° |
| 2026-05-04 14:46 | 48.11705 | -122.09918 | 17813 ft | 394 kts | 11° |
| 2026-05-04 14:46 | 48.14391 | -122.09009 | 18257 ft | 396 kts | 16° |
| 2026-05-04 14:46 | 48.16927 | -122.07357 | 18641 ft | 400 kts | 28° |
| 2026-05-04 14:47 | 48.19183 | -122.04909 | 19031 ft | 404 kts | 40° |
| 2026-05-04 14:47 | 48.21283 | -122.02082 | 19386 ft | 406 kts | 40° |
| 2026-05-04 14:47 | 48.23371 | -121.99220 | 19817 ft | 407 kts | 40° |
| 2026-05-04 14:47 | 48.25471 | -121.96327 | 20152 ft | 410 kts | 40° |
| 2026-05-04 14:48 | 48.27587 | -121.93437 | 20533 ft | 412 kts | 39° |
| 2026-05-04 14:48 | 48.29711 | -121.90543 | 20894 ft | 414 kts | 39° |
| 2026-05-04 14:48 | 48.31816 | -121.87660 | 21239 ft | 415 kts | 39° |
| 2026-05-04 14:48 | 48.33955 | -121.84719 | 21558 ft | 417 kts | 39° |
| 2026-05-04 14:49 | 48.36129 | -121.81732 | 21899 ft | 419 kts | 39° |
| 2026-05-04 14:49 | 48.38281 | -121.78774 | 22205 ft | 421 kts | 39° |
| 2026-05-04 14:49 | 48.40439 | -121.75805 | 22551 ft | 422 kts | 39° |
| 2026-05-04 14:49 | 48.42608 | -121.72813 | 22896 ft | 424 kts | 39° |
| 2026-05-04 14:50 | 48.44786 | -121.69807 | 23220 ft | 425 kts | 39° |
| 2026-05-04 14:50 | 48.46973 | -121.66787 | 23525 ft | 427 kts | 39° |
| 2026-05-04 14:50 | 48.49138 | -121.63791 | 23761 ft | 428 kts | 39° |
| 2026-05-04 14:50 | 48.51337 | -121.60744 | 23933 ft | 431 kts | 39° |
| 2026-05-04 14:51 | 48.53541 | -121.57688 | 24210 ft | 431 kts | 39° |
| 2026-05-04 14:51 | 48.55751 | -121.54619 | 24435 ft | 432 kts | 39° |
| 2026-05-04 14:51 | 48.57965 | -121.51540 | 24671 ft | 433 kts | 39° |
| 2026-05-04 14:51 | 48.60185 | -121.48450 | 24917 ft | 433 kts | 39° |
| 2026-05-04 14:52 | 48.62399 | -121.45365 | 25123 ft | 435 kts | 39° |
| 2026-05-04 14:52 | 48.64629 | -121.42253 | 25311 ft | 436 kts | 39° |
| 2026-05-04 14:52 | 48.66853 | -121.39142 | 25539 ft | 437 kts | 39° |
| 2026-05-04 14:52 | 48.69064 | -121.36049 | 25790 ft | 437 kts | 39° |
| 2026-05-04 14:53 | 48.71299 | -121.32922 | 25987 ft | 439 kts | 39° |
| 2026-05-04 14:53 | 48.73532 | -121.29789 | 26223 ft | 440 kts | 40° |
| 2026-05-04 14:53 | 48.75785 | -121.26623 | 26448 ft | 440 kts | 39° |
| 2026-05-04 14:53 | 48.78034 | -121.23461 | 26664 ft | 441 kts | 40° |
| 2026-05-04 14:54 | 48.80285 | -121.20292 | 26885 ft | 442 kts | 40° |
| 2026-05-04 14:54 | 48.82538 | -121.17116 | 27086 ft | 443 kts | 39° |
| 2026-05-04 14:54 | 48.84795 | -121.13928 | 27312 ft | 442 kts | 39° |
| 2026-05-04 14:54 | 48.87054 | -121.10737 | 27438 ft | 445 kts | 39° |
| 2026-05-04 14:55 | 48.89319 | -121.07532 | 27732 ft | 444 kts | 39° |
| 2026-05-04 14:55 | 48.91564 | -121.04346 | 28142 ft | 441 kts | 39° |
| 2026-05-04 14:55 | 48.93799 | -121.01175 | 28527 ft | 439 kts | 39° |
| 2026-05-04 14:55 | 48.96039 | -120.97995 | 28688 ft | 442 kts | 40° |
| 2026-05-04 14:56 | 49.00585 | -120.91524 | 29088 ft | 446 kts | 39° |
| 2026-05-04 14:56 | 49.02844 | -120.88297 | 29448 ft | 446 kts | 39° |
| 2026-05-04 14:56 | 49.05121 | -120.85050 | 29496 ft | 453 kts | 39° |
| 2026-05-04 14:57 | 49.07373 | -120.81824 | 30691 ft | 429 kts | 39° |
| 2026-05-04 14:57 | 49.09504 | -120.78761 | 31724 ft | 417 kts | 39° |
| 2026-05-04 14:57 | 49.11614 | -120.75747 | 32246 ft | 415 kts | 39° |
| 2026-05-04 14:57 | 49.13717 | -120.72739 | 32811 ft | 412 kts | 39° |
| 2026-05-04 14:58 | 49.15794 | -120.69749 | 33381 ft | 409 kts | 39° |
| 2026-05-04 14:58 | 49.17853 | -120.66780 | 33969 ft | 406 kts | 38° |
| 2026-05-04 14:58 | 49.19903 | -120.63828 | 34489 ft | 403 kts | 38° |
| 2026-05-04 14:58 | 49.21921 | -120.60921 | 34893 ft | 404 kts | 38° |
| 2026-05-04 14:59 | 49.23979 | -120.57955 | 35014 ft | 410 kts | 38° |
| 2026-05-04 14:59 | 49.26072 | -120.54930 | 34985 ft | 418 kts | 38° |
| 2026-05-04 14:59 | 49.30351 | -120.48727 | 35023 ft | 431 kts | 38° |
| 2026-05-04 15:00 | 49.32543 | -120.45547 | 35025 ft | 437 kts | 38° |
| 2026-05-04 15:00 | 49.37008 | -120.39026 | 35038 ft | 449 kts | 41° |
| 2026-05-04 15:01 | 49.40831 | -120.31208 | 35045 ft | 466 kts | 50° |
| 2026-05-04 15:01 | 49.42590 | -120.27156 | 35036 ft | 469 kts | 50° |
| 2026-05-04 15:01 | 49.46211 | -120.18769 | 35025 ft | 469 kts | 50° |
| 2026-05-04 15:02 | 49.49841 | -120.10342 | 34993 ft | 469 kts | 50° |
| 2026-05-04 15:02 | 49.53420 | -120.02005 | 34975 ft | 469 kts | 51° |
| 2026-05-04 15:03 | 49.57011 | -119.93613 | 34945 ft | 470 kts | 50° |
| 2026-05-04 15:03 | 49.60599 | -119.85202 | 34936 ft | 470 kts | 50° |
| 2026-05-04 15:04 | 49.64181 | -119.76778 | 34935 ft | 469 kts | 50° |
| 2026-05-04 15:04 | 49.67768 | -119.68319 | 34930 ft | 471 kts | 51° |
| 2026-05-04 15:05 | 49.71349 | -119.59841 | 34926 ft | 471 kts | 50° |
| 2026-05-04 15:05 | 49.74926 | -119.51349 | 34929 ft | 470 kts | 50° |
| 2026-05-04 15:06 | 49.78466 | -119.42920 | 34928 ft | 471 kts | 50° |
| 2026-05-04 15:07 | 49.83817 | -119.30119 | 34939 ft | 472 kts | 50° |
| 2026-05-04 15:07 | 49.87383 | -119.21565 | 34928 ft | 472 kts | 50° |
| 2026-05-04 15:08 | 49.90947 | -119.12973 | 34935 ft | 473 kts | 50° |
| 2026-05-04 15:08 | 49.94470 | -119.04459 | 34917 ft | 472 kts | 50° |
| 2026-05-04 15:09 | 49.98016 | -118.95862 | 34969 ft | 473 kts | 50° |
| 2026-05-04 15:09 | 50.01559 | -118.87242 | 34940 ft | 473 kts | 50° |
| 2026-05-04 15:10 | 50.06854 | -118.74313 | 34944 ft | 473 kts | 50° |
| 2026-05-04 15:11 | 50.12129 | -118.61363 | 34937 ft | 474 kts | 50° |
| 2026-05-04 15:11 | 50.15663 | -118.52655 | 34951 ft | 475 kts | 50° |
| 2026-05-04 15:12 | 50.19175 | -118.43963 | 34949 ft | 472 kts | 50° |
| 2026-05-04 15:12 | 50.22685 | -118.35264 | 34950 ft | 475 kts | 50° |
| 2026-05-04 15:13 | 50.26193 | -118.26522 | 34952 ft | 474 kts | 50° |
| 2026-05-04 15:13 | 50.29694 | -118.17783 | 34956 ft | 475 kts | 50° |
| 2026-05-04 15:14 | 50.33190 | -118.09018 | 34955 ft | 475 kts | 50° |
| 2026-05-04 15:14 | 50.36673 | -118.00261 | 34966 ft | 474 kts | 50° |
| 2026-05-04 15:15 | 50.40160 | -117.91466 | 34966 ft | 475 kts | 50° |
| 2026-05-04 15:15 | 50.43641 | -117.82653 | 34959 ft | 476 kts | 50° |
| 2026-05-04 15:16 | 50.48843 | -117.69422 | 34975 ft | 476 kts | 50° |
| 2026-05-04 15:17 | 50.54060 | -117.56093 | 34980 ft | 477 kts | 50° |
| 2026-05-04 15:17 | 50.59265 | -117.42728 | 34986 ft | 478 kts | 50° |
| 2026-05-04 15:18 | 50.62718 | -117.33814 | 34983 ft | 476 kts | 51° |
| 2026-05-04 15:19 | 50.67891 | -117.20421 | 34987 ft | 479 kts | 51° |
| 2026-05-04 15:19 | 50.73069 | -117.06932 | 35002 ft | 479 kts | 50° |
| 2026-05-04 15:20 | 50.76510 | -116.97930 | 35011 ft | 478 kts | 50° |
| 2026-05-04 15:20 | 50.79939 | -116.88934 | 35013 ft | 478 kts | 50° |
| 2026-05-04 15:21 | 50.83362 | -116.79916 | 35022 ft | 478 kts | 50° |
| 2026-05-04 15:22 | 50.88467 | -116.66418 | 35028 ft | 475 kts | 49° |
| 2026-05-04 15:22 | 50.95069 | -116.55388 | 35020 ft | 452 kts | 28° |
| 2026-05-04 15:23 | 51.00194 | -116.49581 | 35030 ft | 452 kts | 28° |
| 2026-05-04 15:23 | 51.05300 | -116.43797 | 35073 ft | 451 kts | 28° |
| 2026-05-04 15:24 | 51.14667 | -116.33144 | 35039 ft | 453 kts | 28° |
| 2026-05-04 15:25 | 51.19782 | -116.27299 | 35039 ft | 451 kts | 28° |
| 2026-05-04 15:26 | 51.27439 | -116.18526 | 35046 ft | 452 kts | 28° |
| 2026-05-04 15:26 | 51.35064 | -116.09747 | 35072 ft | 448 kts | 28° |
| 2026-05-04 15:27 | 51.42669 | -116.00955 | 35083 ft | 449 kts | 28° |
| 2026-05-04 15:28 | 51.50259 | -115.92146 | 35092 ft | 447 kts | 28° |
| 2026-05-04 15:29 | 51.57863 | -115.83286 | 35102 ft | 451 kts | 28° |
| 2026-05-04 15:30 | 51.75609 | -115.62452 | 35098 ft | 452 kts | 28° |
| 2026-05-04 15:31 | 51.83229 | -115.53441 | 35121 ft | 453 kts | 28° |
| 2026-05-04 15:32 | 51.95909 | -115.38368 | 35095 ft | 452 kts | 28° |
| 2026-05-04 15:34 | 52.08571 | -115.23203 | 35103 ft | 453 kts | 28° |
| 2026-05-04 15:34 | 52.16181 | -115.14036 | 35110 ft | 454 kts | 28° |
| 2026-05-04 15:35 | 52.23796 | -115.04822 | 35105 ft | 455 kts | 28° |
| 2026-05-04 15:36 | 52.31419 | -114.95559 | 35108 ft | 455 kts | 28° |
| 2026-05-04 15:36 | 52.36487 | -114.89376 | 35090 ft | 452 kts | 28° |
| 2026-05-04 15:37 | 52.41530 | -114.83212 | 35088 ft | 452 kts | 28° |
| 2026-05-04 15:37 | 52.46567 | -114.77032 | 35092 ft | 453 kts | 28° |
| 2026-05-04 15:38 | 52.51573 | -114.70873 | 35092 ft | 454 kts | 28° |
| 2026-05-04 15:38 | 52.56630 | -114.64634 | 35117 ft | 454 kts | 28° |
| 2026-05-04 15:39 | 52.61669 | -114.58394 | 35114 ft | 452 kts | 28° |
| 2026-05-04 15:40 | 52.69222 | -114.49014 | 35130 ft | 454 kts | 28° |
| 2026-05-04 15:40 | 52.74248 | -114.42748 | 35132 ft | 453 kts | 28° |
| 2026-05-04 15:41 | 52.79274 | -114.36463 | 35195 ft | 453 kts | 28° |
| 2026-05-04 15:41 | 52.84303 | -114.30154 | 35145 ft | 452 kts | 28° |
| 2026-05-04 15:42 | 52.89317 | -114.23851 | 35142 ft | 452 kts | 28° |
| 2026-05-04 15:42 | 52.94322 | -114.17535 | 35149 ft | 453 kts | 28° |
| 2026-05-04 15:43 | 52.99340 | -114.11185 | 35150 ft | 453 kts | 28° |
| 2026-05-04 15:43 | 53.04351 | -114.04825 | 35212 ft | 453 kts | 28° |
| 2026-05-04 15:44 | 53.09335 | -113.98478 | 35154 ft | 452 kts | 28° |
| 2026-05-04 15:44 | 53.14338 | -113.92093 | 35160 ft | 453 kts | 28° |
| 2026-05-04 15:45 | 53.19350 | -113.85728 | 35164 ft | 451 kts | 26° |
| 2026-05-04 15:45 | 53.24457 | -113.79597 | 35157 ft | 452 kts | 27° |
| 2026-05-04 15:46 | 53.29514 | -113.73487 | 35156 ft | 451 kts | 27° |
| 2026-05-04 15:46 | 53.34630 | -113.67301 | 35150 ft | 450 kts | 27° |
| 2026-05-04 15:47 | 53.39706 | -113.61138 | 35149 ft | 451 kts | 27° |
| 2026-05-04 15:47 | 53.44755 | -113.54991 | 35171 ft | 451 kts | 27° |
| 2026-05-04 15:48 | 53.49831 | -113.48792 | 35168 ft | 451 kts | 27° |
| 2026-05-04 15:48 | 53.57453 | -113.39450 | 35209 ft | 453 kts | 27° |
| 2026-05-04 15:49 | 53.62581 | -113.33389 | 35185 ft | 446 kts | 24° |
| 2026-05-04 15:49 | 53.67749 | -113.27648 | 35185 ft | 448 kts | 25° |
| 2026-05-04 15:50 | 53.72957 | -113.21853 | 35188 ft | 447 kts | 24° |
| 2026-05-04 15:50 | 53.78148 | -113.16063 | 35192 ft | 448 kts | 25° |
| 2026-05-04 15:51 | 53.83358 | -113.10228 | 35194 ft | 449 kts | 25° |
| 2026-05-04 15:51 | 53.88574 | -113.04376 | 35194 ft | 451 kts | 25° |
| 2026-05-04 15:52 | 53.93809 | -112.98477 | 35191 ft | 451 kts | 25° |
| 2026-05-04 15:52 | 53.99037 | -112.92574 | 35194 ft | 451 kts | 25° |
| 2026-05-04 15:53 | 54.04260 | -112.86656 | 35186 ft | 452 kts | 25° |
| 2026-05-04 15:53 | 54.09461 | -112.80744 | 35186 ft | 451 kts | 25° |
| 2026-05-04 15:54 | 54.14689 | -112.74788 | 35179 ft | 455 kts | 26° |
| 2026-05-04 15:54 | 54.19997 | -112.68718 | 35181 ft | 461 kts | 26° |
| 2026-05-04 15:55 | 54.25313 | -112.62614 | 35177 ft | 459 kts | 26° |
| 2026-05-04 15:55 | 54.30625 | -112.56505 | 35177 ft | 458 kts | 26° |
| 2026-05-04 15:56 | 54.35909 | -112.50403 | 35171 ft | 458 kts | 26° |
| 2026-05-04 15:56 | 54.41209 | -112.44269 | 35228 ft | 461 kts | 27° |
| 2026-05-04 15:57 | 54.46588 | -112.38021 | 35159 ft | 469 kts | 27° |
| 2026-05-04 15:57 | 54.51979 | -112.31730 | 35163 ft | 467 kts | 27° |
| 2026-05-04 15:58 | 54.57363 | -112.25439 | 35171 ft | 467 kts | 27° |
| 2026-05-04 15:58 | 54.62700 | -112.19176 | 35168 ft | 468 kts | 27° |
| 2026-05-04 15:59 | 54.68087 | -112.12837 | 35164 ft | 469 kts | 27° |
| 2026-05-04 15:59 | 54.73494 | -112.06456 | 35172 ft | 474 kts | 28° |
| 2026-05-04 16:00 | 54.78936 | -112.00001 | 35171 ft | 473 kts | 28° |
| 2026-05-04 16:00 | 54.84356 | -111.93564 | 35171 ft | 473 kts | 28° |
| 2026-05-04 16:01 | 54.89771 | -111.87102 | 35175 ft | 471 kts | 28° |
| 2026-05-04 16:01 | 54.95173 | -111.80641 | 35173 ft | 472 kts | 28° |
| 2026-05-04 16:02 | 55.00580 | -111.74148 | 35175 ft | 472 kts | 28° |
| 2026-05-04 16:03 | 55.08702 | -111.64357 | 35177 ft | 473 kts | 28° |
| 2026-05-04 16:03 | 55.14106 | -111.57815 | 35180 ft | 473 kts | 28° |
| 2026-05-04 16:04 | 55.19478 | -111.51289 | 35181 ft | 472 kts | 28° |
| 2026-05-04 16:04 | 55.27561 | -111.41430 | 35190 ft | 472 kts | 29° |
| 2026-05-04 16:05 | 55.32976 | -111.34798 | 35174 ft | 476 kts | 29° |
| 2026-05-04 16:06 | 55.41105 | -111.24796 | 35174 ft | 475 kts | 29° |
| 2026-05-04 16:07 | 55.51937 | -111.11390 | 35175 ft | 475 kts | 30° |
| 2026-05-04 16:08 | 55.62749 | -110.97917 | 35182 ft | 478 kts | 30° |
| 2026-05-04 16:09 | 55.75437 | -110.81988 | 35183 ft | 478 kts | 30° |
| 2026-05-04 16:10 | 55.86281 | -110.68273 | 35179 ft | 481 kts | 31° |
| 2026-05-04 16:11 | 55.97167 | -110.54403 | 35174 ft | 481 kts | 31° |
| 2026-05-04 16:12 | 56.24895 | -110.18635 | 35180 ft | 486 kts | 32° |
| 2026-05-04 16:13 | 56.46800 | -109.89913 | 35169 ft | 489 kts | 33° |
| 2026-05-04 16:14 | 56.68707 | -109.60765 | 35152 ft | 487 kts | 33° |
| 2026-05-04 16:16 | 56.96020 | -109.23813 | 35520 ft | 491 kts | 33° |
| 2026-05-04 16:16 | 57.12443 | -109.01261 | 36697 ft | 492 kts | 34° |
| 2026-05-04 16:17 | 57.23426 | -108.86037 | 37164 ft | 496 kts | 34° |
| 2026-05-04 16:18 | 57.45196 | -108.55509 | 37171 ft | 492 kts | 34° |
| 2026-05-04 16:19 | 57.72407 | -108.16686 | 37176 ft | 491 kts | 35° |
| 2026-05-04 16:20 | 57.99388 | -107.77438 | 37174 ft | 491 kts | 35° |